Time;durP1;ratioP1;P1;durP2;ratioP2;P2;SDS_P1;SDS_P2;PMS_P1;PMS_P2;Temp;Humidity;BMP_temperature;BMP_pressure;BME280_temperature;BME280_humidity;BME280_pressure;Samples;Min_cycle;Max_cycle;Signal;HPM_P1;HPM_P2
2021/05/07 00:01:45;;;;;;;17.38;8.68;;;;;;;29.96;53.88;101091.00;5049644;27;69878;-37
2021/05/07 00:04:19;;;;;;;22.50;9.85;;;;;;;29.98;55.13;101082.69;5051827;28;65343;-37
2021/05/07 00:06:52;;;;;;;14.30;10.25;;;;;;;30.13;55.59;101113.03;5063338;28;70034;-36
2021/05/07 00:09:22;;;;;;;21.35;9.98;;;;;;;30.20;54.92;101119.28;5068954;28;66180;-37
2021/05/07 00:11:53;;;;;;;22.85;10.55;;;;;;;30.32;55.48;101115.97;5056139;28;69961;-37
2021/05/07 00:14:23;;;;;;;14.68;10.30;;;;;;;30.37;56.71;101124.25;5056473;28;65955;-37
2021/05/07 00:16:55;;;;;;;18.98;10.77;;;;;;;30.50;56.03;101124.22;5056271;28;69909;-37
2021/05/07 00:19:26;;;;;;;14.48;9.98;;;;;;;30.56;57.27;101138.78;5070915;27;66697;-37
2021/05/07 00:21:59;;;;;;;25.95;11.07;;;;;;;30.62;57.58;101146.91;5065242;28;70027;-38
2021/05/07 00:24:29;;;;;;;20.80;10.70;;;;;;;30.59;57.84;101133.81;5056292;28;66405;-36
2021/05/07 00:27:00;;;;;;;15.93;10.13;;;;;;;30.61;58.20;101147.13;5062647;28;69340;-37
2021/05/07 00:29:30;;;;;;;23.55;10.68;;;;;;;30.64;59.39;101155.63;5059076;28;66218;-37
2021/05/07 00:32:09;;;;;;;19.20;10.38;;;;;;;30.75;58.25;101158.75;5069526;28;70093;-36
2021/05/07 00:34:39;;;;;;;17.85;11.57;;;;;;;30.70;59.12;101162.94;5054556;28;66282;-34
2021/05/07 00:37:09;;;;;;;27.02;11.20;;;;;;;30.73;59.30;101167.94;5062231;28;69829;-34
2021/05/07 00:39:39;;;;;;;22.67;11.10;;;;;;;30.80;59.88;101177.94;5058345;28;65417;-33
2021/05/07 00:42:11;;;;;;;26.75;10.55;;;;;;;30.86;58.83;101188.72;5054207;28;69200;-33
2021/05/07 00:44:42;;;;;;;27.00;11.73;;;;;;;30.91;58.71;101190.81;5057665;28;66249;-34
2021/05/07 00:47:13;;;;;;;18.38;10.77;;;;;;;30.91;58.37;101190.81;5041930;28;69988;-34
2021/05/07 00:49:43;;;;;;;20.05;11.63;;;;;;;30.97;58.28;101200.78;5041697;28;66698;-34
2021/05/07 00:52:16;;;;;;;15.63;12.18;;;;;;;31.00;58.27;101197.66;5040216;28;70484;-34
2021/05/07 00:54:47;;;;;;;15.25;12.45;;;;;;;31.02;57.87;101201.00;5041728;28;67080;-34
2021/05/07 00:57:18;;;;;;;20.20;12.95;;;;;;;31.03;57.72;101210.78;5052039;28;70061;-34
2021/05/07 00:59:49;;;;;;;19.35;12.98;;;;;;;31.06;56.82;101204.91;5043436;28;66376;-34
2021/05/07 01:02:19;;;;;;;22.30;13.13;;;;;;;31.07;56.95;101212.03;5058062;28;68644;-34
2021/05/07 01:04:50;;;;;;;33.60;14.43;;;;;;;31.09;57.26;101215.34;5055354;28;66021;-34
2021/05/07 01:07:20;;;;;;;22.70;13.00;;;;;;;31.08;56.43;101197.41;5040310;28;69261;-34
2021/05/07 01:09:50;;;;;;;19.05;13.60;;;;;;;31.13;56.65;101197.59;5038810;28;66895;-34
2021/05/07 01:12:22;;;;;;;25.58;14.75;;;;;;;31.18;56.10;101196.97;5057702;28;70349;-35
2021/05/07 01:15:08;;;;;;;18.67;14.48;;;;;;;31.05;56.64;101180.75;5048853;28;66074;-34
2021/05/07 01:17:52;;;;;;;19.88;14.48;;;;;;;31.13;56.86;101194.91;5053625;28;70274;-35
2021/05/07 01:20:23;;;;;;;19.10;14.77;;;;;;;31.21;56.57;101198.44;5040484;28;66203;-34
2021/05/07 01:22:55;;;;;;;18.63;14.63;;;;;;;31.11;56.40;101185.31;5054157;28;69979;-34
2021/05/07 01:25:35;;;;;;;19.42;13.85;;;;;;;31.15;56.38;101189.28;5057909;28;66334;-34
2021/05/07 01:28:08;;;;;;;19.08;14.40;;;;;;;31.15;56.24;101187.41;5043544;28;69125;-34
2021/05/07 01:30:41;;;;;;;16.50;13.98;;;;;;;31.16;55.79;101189.03;5053726;28;66214;-35
2021/05/07 01:33:15;;;;;;;18.15;14.20;;;;;;;31.32;55.78;101209.41;5066025;28;70499;-34
2021/05/07 01:35:50;;;;;;;16.98;14.52;;;;;;;31.30;55.76;101199.84;5050729;28;66116;-33
2021/05/07 01:38:22;;;;;;;20.08;14.05;;;;;;;31.33;56.00;101196.69;5048907;28;70277;-34
2021/05/07 01:40:52;;;;;;;22.40;14.82;;;;;;;31.39;55.65;101198.56;5070904;28;66394;-33
2021/05/07 01:43:30;;;;;;;18.90;14.45;;;;;;;31.40;55.41;101194.81;5056775;28;70165;-34
2021/05/07 01:46:02;;;;;;;17.30;14.27;;;;;;;31.44;55.58;101193.31;5055127;28;65875;-34
2021/05/07 01:48:34;;;;;;;21.02;14.43;;;;;;;31.45;55.85;101186.84;5048109;28;69763;-33
2021/05/07 01:51:08;;;;;;;19.60;14.30;;;;;;;31.40;55.69;101181.28;5052220;28;65625;-34
2021/05/07 01:53:43;;;;;;;18.35;14.02;;;;;;;31.47;56.11;101183.94;5042137;28;69028;-35
2021/05/07 01:56:13;;;;;;;20.95;13.70;;;;;;;31.50;55.41;101189.75;5055564;28;66637;-35
2021/05/07 01:58:49;;;;;;;15.55;13.68;;;;;;;31.52;55.99;101195.78;5055848;28;69187;-33
2021/05/07 02:01:22;;;;;;;15.43;13.80;;;;;;;31.44;55.45;101179.78;5046029;28;66644;-34
2021/05/07 02:03:56;;;;;;;16.00;12.98;;;;;;;31.55;55.52;101192.63;5053294;28;70024;-34
2021/05/07 02:06:36;;;;;;;17.90;13.88;;;;;;;31.57;55.14;101189.72;5049537;28;66099;-34
2021/05/07 02:09:06;;;;;;;21.90;13.63;;;;;;;31.60;55.13;101189.28;5055845;28;69999;-34
2021/05/07 02:11:37;;;;;;;16.73;13.27;;;;;;;31.57;55.41;101190.56;5039056;28;66314;-35
2021/05/07 02:14:10;;;;;;;17.25;13.52;;;;;;;31.57;55.18;101195.97;5049251;28;69712;-33
2021/05/07 02:16:41;;;;;;;14.43;12.95;;;;;;;31.60;55.07;101200.97;5054004;28;65985;-34
2021/05/07 02:19:12;;;;;;;13.57;12.27;;;;;;;31.60;55.17;101200.97;5047979;28;70089;-34
2021/05/07 02:21:42;;;;;;;14.85;12.77;;;;;;;31.64;55.49;101200.53;5057279;28;65607;-34
2021/05/07 02:24:13;;;;;;;13.80;12.38;;;;;;;31.74;55.08;101195.47;5042492;28;70221;-35
2021/05/07 02:26:43;;;;;;;13.13;11.90;;;;;;;31.72;54.76;101192.13;5046492;28;66353;-34
2021/05/07 02:29:13;;;;;;;13.80;12.48;;;;;;;31.73;55.16;101194.63;5044360;28;69775;-34
2021/05/07 02:31:44;;;;;;;13.35;12.18;;;;;;;31.74;55.05;101184.59;5041863;28;66501;-34
2021/05/07 02:34:15;;;;;;;13.57;12.13;;;;;;;31.75;55.32;101178.94;5039000;28;70426;-34
2021/05/07 02:36:45;;;;;;;17.20;12.73;;;;;;;31.75;54.72;101165.38;5049633;28;67163;-34
2021/05/07 02:39:16;;;;;;;13.07;11.82;;;;;;;31.75;54.86;101159.97;5042248;28;69829;-35
2021/05/07 02:41:46;;;;;;;19.00;12.57;;;;;;;31.75;54.85;101161.84;5045232;28;66106;-35
2021/05/07 02:44:16;;;;;;;12.95;11.65;;;;;;;31.81;54.68;101169.09;5055058;28;69826;-33
2021/05/07 02:46:47;;;;;;;14.13;11.15;;;;;;;31.80;55.12;101173.69;5044102;28;66037;-34
2021/05/07 02:49:17;;;;;;;13.32;11.90;;;;;;;31.85;54.60;101173.06;5044341;28;69109;-34
2021/05/07 02:51:47;;;;;;;12.65;10.73;;;;;;;31.88;54.88;101175.31;5051032;28;66806;-33
2021/05/07 02:54:18;;;;;;;11.82;10.65;;;;;;;31.89;55.08;101157.97;5056238;28;68756;-36
2021/05/07 02:56:48;;;;;;;15.07;10.25;;;;;;;31.96;54.34;101161.50;5043268;28;66170;-33
2021/05/07 02:59:22;;;;;;;15.13;10.60;;;;;;;31.95;54.62;101162.56;5056044;28;70718;-34
2021/05/07 03:01:53;;;;;;;14.05;10.88;;;;;;;31.97;54.83;101152.31;5043062;28;65350;-34
2021/05/07 03:04:24;;;;;;;11.77;10.63;;;;;;;32.02;54.32;101147.06;5044295;28;70104;-33
2021/05/07 03:06:54;;;;;;;11.82;10.82;;;;;;;32.03;54.73;101143.28;5045597;28;65331;-34
2021/05/07 03:09:23;;;;;;;12.68;11.10;;;;;;;32.08;54.25;101141.81;5042502;28;70109;-34
2021/05/07 03:11:56;;;;;;;12.45;11.25;;;;;;;32.01;54.71;101142.69;5057107;28;66077;-34
2021/05/07 03:14:26;;;;;;;;;;;;;;;32.01;54.49;101153.56;5054393;28;69366;-34
2021/05/07 03:16:56;;;;;;;11.50;10.18;;;;;;;32.16;54.02;101158.63;5057205;28;65387;-34
2021/05/07 03:19:26;;;;;;;12.18;10.88;;;;;;;32.22;54.40;101165.06;5050426;28;69284;-35
2021/05/07 03:21:56;;;;;;;12.88;10.43;;;;;;;32.23;54.56;101161.28;5043347;28;66230;-35
2021/05/07 03:24:26;;;;;;;11.60;10.70;;;;;;;32.26;53.92;101156.25;5044442;28;70675;-33
2021/05/07 03:26:56;;;;;;;11.38;10.45;;;;;;;32.31;54.34;101163.69;5042192;28;66711;-34
2021/05/07 03:29:26;;;;;;;11.65;10.23;;;;;;;32.29;54.29;101154.97;5053016;28;69025;-34
2021/05/07 03:31:56;;;;;;;10.52;9.48;;;;;;;32.36;54.12;101160.31;5042852;28;65731;-34
2021/05/07 03:34:26;;;;;;;11.10;10.02;;;;;;;32.37;54.19;101151.94;5053277;28;69130;-35
2021/05/07 03:36:56;;;;;;;11.52;10.40;;;;;;;32.41;53.86;101146.91;5054870;28;65808;-33
2021/05/07 03:39:27;;;;;;;14.57;10.07;;;;;;;32.42;54.03;101145.84;5047677;28;69803;-34
2021/05/07 03:41:57;;;;;;;10.48;9.68;;;;;;;32.46;53.89;101145.22;5055173;28;65669;-34
2021/05/07 03:44:27;;;;;;;11.27;10.48;;;;;;;32.49;53.75;101139.34;5043045;28;68958;-34
2021/05/07 03:46:58;;;;;;;10.98;9.88;;;;;;;32.51;53.74;101127.41;5054010;28;65269;-35
2021/05/07 03:49:30;;;;;;;11.88;10.60;;;;;;;32.54;53.95;101149.53;5054904;28;69088;-36
2021/05/07 03:52:01;;;;;;;9.57;8.75;;;;;;;32.56;53.94;101144.69;5051753;28;66046;-35
2021/05/07 03:54:31;;;;;;;10.88;9.65;;;;;;;32.61;53.66;101146.72;5046691;28;70036;-34
2021/05/07 03:57:01;;;;;;;11.38;9.77;;;;;;;32.63;53.95;101142.75;5052889;28;66397;-33
2021/05/07 03:59:31;;;;;;;9.90;9.13;;;;;;;32.69;53.38;101149.16;5039367;28;70296;-33
2021/05/07 04:02:01;;;;;;;10.23;9.43;;;;;;;32.71;53.52;101141.63;5043323;28;65742;-33
2021/05/07 04:04:33;;;;;;;10.13;9.07;;;;;;;32.74;53.43;101130.28;5049919;28;70555;-34
2021/05/07 04:07:03;;;;;;;12.23;9.67;;;;;;;32.76;53.87;101133.59;5055424;28;67310;-34
2021/05/07 04:09:36;;;;;;;10.35;9.40;;;;;;;32.81;53.67;101120.16;5051230;28;69075;-34
2021/05/07 04:12:14;;;;;;;10.10;9.07;;;;;;;32.83;53.49;101115.34;5055984;28;66210;-33
2021/05/07 04:14:46;;;;;;;9.77;8.93;;;;;;;32.84;53.09;101103.41;5053767;28;70274;-33
2021/05/07 04:17:17;;;;;;;10.07;9.10;;;;;;;32.86;53.27;101112.16;5042821;28;67572;-34
2021/05/07 04:19:48;;;;;;;;;;;;;;;32.80;53.61;101107.63;5040249;28;70905;-33
2021/05/07 04:22:18;;;;;;;9.32;8.50;;;;;;;32.97;52.97;101101.59;5054630;28;66349;-36
2021/05/07 04:24:49;;;;;;;10.82;9.80;;;;;;;33.00;52.98;101099.25;5046751;28;69987;-33
2021/05/07 04:27:20;;;;;;;11.82;9.10;;;;;;;33.05;53.17;101093.13;5056019;28;65861;-34
2021/05/07 04:29:51;;;;;;;9.85;8.93;;;;;;;33.08;52.82;101090.78;5049843;28;68924;-35
2021/05/07 04:32:21;;;;;;;9.27;8.40;;;;;;;33.11;52.85;101081.34;5053652;28;65854;-34
2021/05/07 04:34:52;;;;;;;8.93;8.15;;;;;;;33.11;52.70;101081.34;5042470;28;69985;-36
2021/05/07 04:37:22;;;;;;;10.13;9.18;;;;;;;33.17;52.71;101069.53;5049498;28;66117;-34
2021/05/07 04:39:53;;;;;;;9.18;8.27;;;;;;;33.23;52.92;101068.59;5049654;28;69257;-33
2021/05/07 04:42:24;;;;;;;9.85;8.88;;;;;;;33.22;52.60;101057.97;5051490;28;65870;-35
2021/05/07 04:44:54;;;;;;;9.85;8.93;;;;;;;33.28;52.60;101059.75;5048003;28;69885;-34
2021/05/07 04:47:24;;;;;;;9.48;8.50;;;;;;;33.32;52.47;101053.63;5046183;28;66224;-34
2021/05/07 04:49:54;;;;;;;9.38;8.45;;;;;;;33.37;52.48;101037.44;5055368;28;68973;-34
2021/05/07 04:52:24;;;;;;;8.68;8.05;;;;;;;33.35;52.33;101028.69;5050470;28;66380;-34
2021/05/07 04:54:57;;;;;;;10.18;9.05;;;;;;;33.44;52.27;101020.19;5050612;28;70225;-35
2021/05/07 04:57:29;;;;;;;9.95;8.93;;;;;;;33.47;52.01;101014.28;5038608;28;66226;-34
2021/05/07 04:59:59;;;;;;;8.68;7.95;;;;;;;33.52;52.01;101001.69;5047633;28;69502;-34
2021/05/07 05:02:30;;;;;;;9.15;8.27;;;;;;;33.56;51.97;100980.25;5047887;28;65834;-35
2021/05/07 05:05:05;;;;;;;9.38;8.63;;;;;;;33.58;51.91;100978.16;5044785;28;70266;-34
2021/05/07 05:07:36;;;;;;;8.98;7.78;;;;;;;33.58;51.87;100967.25;5054993;28;67232;-34
2021/05/07 05:10:07;;;;;;;8.00;7.45;;;;;;;33.63;51.72;100969.25;5055776;28;70063;-34
2021/05/07 05:12:39;;;;;;;8.85;8.15;;;;;;;33.63;51.84;100964.66;5056870;28;66312;-34
2021/05/07 05:15:11;;;;;;;9.35;8.70;;;;;;;33.64;52.17;100949.16;5068198;28;70547;-34
2021/05/07 05:17:55;;;;;;;9.40;7.80;;;;;;;33.67;51.53;100946.78;5058138;28;66284;-34
2021/05/07 05:20:26;;;;;;;15.55;8.15;;;;;;;33.69;51.75;100938.41;5060294;28;70350;-34
2021/05/07 05:22:56;;;;;;;11.32;8.18;;;;;;;33.70;51.79;100932.72;5067092;27;66056;-35
2021/05/07 05:25:26;;;;;;;7.90;7.28;;;;;;;33.71;51.74;100915.34;5066428;28;70119;-35
2021/05/07 05:27:56;;;;;;;8.18;7.57;;;;;;;33.75;51.66;100912.97;5069567;28;66981;-33
2021/05/07 05:30:28;;;;;;;8.32;7.63;;;;;;;33.72;52.00;100908.81;5073475;27;70055;-34
2021/05/07 05:32:58;;;;;;;7.95;7.25;;;;;;;33.73;51.55;100888.69;5044191;27;64956;-36
2021/05/07 05:35:28;;;;;;;8.50;7.80;;;;;;;33.77;51.76;100889.88;5058783;28;70421;-34
2021/05/07 05:37:58;;;;;;;22.23;7.55;;;;;;;33.77;51.81;100879.00;5062732;28;66000;-34
2021/05/07 05:40:28;;;;;;;11.20;7.93;;;;;;;33.84;51.31;100872.59;5071173;27;69750;-33
2021/05/07 05:42:59;;;;;;;8.30;7.47;;;;;;;33.86;51.50;100865.03;5044332;28;64617;-34
2021/05/07 05:45:29;;;;;;;7.80;7.20;;;;;;;33.90;51.23;100871.63;5045760;28;71053;-34
2021/05/07 05:48:15;;;;;;;8.82;7.50;;;;;;;33.90;51.54;100849.84;5059940;28;65477;-34
2021/05/07 05:50:50;;;;;;;9.13;8.25;;;;;;;33.93;51.14;100849.38;5049331;28;70111;-34
2021/05/07 05:53:20;;;;;;;7.72;7.07;;;;;;;33.98;51.36;100852.19;5061306;28;66002;-34
2021/05/07 05:55:50;;;;;;;11.73;7.43;;;;;;;33.98;51.34;100846.75;5078662;28;70628;-33
2021/05/07 05:58:21;;;;;;;8.20;7.60;;;;;;;34.02;51.37;100842.50;5051441;27;66095;-34
2021/05/07 06:00:52;;;;;;;7.65;7.15;;;;;;;33.99;51.35;100827.47;5070397;27;70040;-34
2021/05/07 06:03:23;;;;;;;7.50;7.00;;;;;;;34.05;51.20;100825.72;5059639;28;65988;-34
2021/05/07 06:05:55;;;;;;;7.70;7.10;;;;;;;34.02;51.10;100820.72;5072599;28;69389;-34
2021/05/07 06:08:25;;;;;;;7.47;6.85;;;;;;;34.09;51.38;100832.31;5050877;28;66486;-33
2021/05/07 06:10:56;;;;;;;8.05;7.35;;;;;;;34.11;51.11;100813.84;5078212;27;70025;-33
2021/05/07 06:13:26;;;;;;;7.85;7.20;;;;;;;34.15;51.36;100809.53;5057573;27;65991;-36
2021/05/07 06:15:56;;;;;;;7.72;7.20;;;;;;;34.18;51.04;100813.66;5061886;28;69753;-34
2021/05/07 06:18:27;;;;;;;8.55;7.07;;;;;;;34.18;51.27;100797.34;5059273;28;65864;-34
2021/05/07 06:20:58;;;;;;;;;;;;;;;34.14;51.21;100791.56;5078926;27;69679;-33
2021/05/07 06:23:28;;;;;;;7.63;7.13;;;;;;;34.25;50.91;100784.41;5063115;27;65427;-34
2021/05/07 06:25:59;;;;;;;15.10;6.93;;;;;;;34.30;50.89;100773.63;5072197;28;70094;-34
2021/05/07 06:28:30;;;;;;;7.68;7.13;;;;;;;34.31;50.94;100775.25;5059647;28;65708;-34
2021/05/07 06:31:03;;;;;;;7.57;6.97;;;;;;;34.31;50.81;100758.09;5073730;28;69821;-34
2021/05/07 06:33:33;;;;;;;7.35;6.85;;;;;;;34.36;50.72;100761.72;5069903;27;66113;-34
2021/05/07 06:36:06;;;;;;;7.80;7.20;;;;;;;34.37;51.14;100768.00;5070150;28;70042;-34
2021/05/07 06:38:36;;;;;;;7.53;6.93;;;;;;;34.42;50.98;100754.47;5046003;28;66690;-33
2021/05/07 06:41:06;;;;;;;8.15;7.03;;;;;;;34.47;50.80;100758.09;5056174;28;69805;-34
2021/05/07 06:43:36;;;;;;;7.88;7.07;;;;;;;34.47;50.89;100758.09;5058684;28;66292;-34
2021/05/07 06:46:08;;;;;;;7.25;6.72;;;;;;;34.53;50.78;100752.75;5056673;28;70938;-33
2021/05/07 06:48:38;;;;;;;;;;;;;;;34.44;50.53;100742.25;5058941;28;66037;-34
2021/05/07 06:51:09;;;;;;;7.22;6.72;;;;;;;34.59;50.34;100744.41;5058243;28;69052;-33
2021/05/07 06:53:42;;;;;;;7.68;7.13;;;;;;;34.62;50.47;100738.47;5064689;28;66104;-33
2021/05/07 06:56:15;;;;;;;6.85;6.45;;;;;;;34.64;50.65;100736.31;5067818;27;69410;-34
2021/05/07 06:58:45;;;;;;;8.07;7.38;;;;;;;34.64;50.46;100725.44;5044546;28;65981;-33
2021/05/07 07:01:18;;;;;;;7.93;7.15;;;;;;;34.66;50.82;100723.28;5055419;28;69973;-33
2021/05/07 07:03:48;;;;;;;7.22;6.55;;;;;;;34.68;50.34;100721.13;5053260;28;65267;-34
2021/05/07 07:06:18;;;;;;;8.05;7.22;;;;;;;34.70;50.91;100716.25;5056308;28;69301;-34
2021/05/07 07:08:51;;;;;;;7.00;6.45;;;;;;;34.75;50.38;100722.88;5058229;28;65933;-34
2021/05/07 07:11:41;;;;;;;;;;;;;;;34.67;50.64;100713.22;5057659;28;69769;-33
2021/05/07 07:14:11;;;;;;;8.32;6.03;;;;;;;34.79;50.54;100702.19;5058789;28;66694;-33
2021/05/07 07:16:41;;;;;;;7.18;6.68;;;;;;;34.80;50.43;100701.09;5047701;28;69238;-33
2021/05/07 07:19:12;;;;;;;7.37;6.77;;;;;;;34.79;50.60;100688.56;5050230;28;66821;-35
2021/05/07 07:22:06;;;;;;;7.05;6.45;;;;;;;34.85;49.99;100676.66;5063389;28;70198;-34
2021/05/07 07:24:37;;;;;;;7.00;6.50;;;;;;;34.88;50.29;100678.88;5071916;28;65204;-34
2021/05/07 07:27:08;;;;;;;8.88;6.82;;;;;;;34.93;50.16;100684.41;5053182;28;69683;-34
2021/05/07 07:29:38;;;;;;;7.32;6.82;;;;;;;34.93;50.07;100684.41;5060273;28;66163;-34
2021/05/07 07:32:08;;;;;;;6.63;6.13;;;;;;;34.98;49.78;100673.56;5066739;27;70796;-34
2021/05/07 07:34:40;;;;;;;6.55;6.15;;;;;;;34.98;50.21;100665.38;5074475;28;66124;-33
2021/05/07 07:37:10;;;;;;;6.60;6.10;;;;;;;34.99;50.22;100660.75;5071747;27;70735;-34
2021/05/07 07:39:42;;;;;;;6.97;6.47;;;;;;;35.01;49.74;100669.50;5058723;28;65088;-34
2021/05/07 07:42:12;;;;;;;7.68;6.10;;;;;;;35.00;49.90;100657.78;5070355;28;69596;-34
2021/05/07 07:44:42;;;;;;;6.60;6.07;;;;;;;35.00;49.95;100652.34;5070950;27;66491;-35
2021/05/07 07:47:12;;;;;;;7.78;6.07;;;;;;;35.07;49.90;100647.53;5057744;28;69905;-35
2021/05/07 07:49:43;;;;;;;6.95;6.45;;;;;;;35.05;49.87;100646.94;5055659;28;66267;-38
2021/05/07 07:52:16;;;;;;;7.20;6.70;;;;;;;35.12;49.86;100650.31;5042791;28;69280;-34
2021/05/07 07:54:46;;;;;;;6.68;6.28;;;;;;;35.10;49.95;100651.66;5056150;28;65336;-34
2021/05/07 07:57:16;;;;;;;7.35;6.75;;;;;;;35.14;49.75;100642.72;5043856;28;69220;-35
2021/05/07 07:59:47;;;;;;;7.22;5.75;;;;;;;35.13;49.92;100643.81;5055237;28;66008;-33
2021/05/07 08:02:17;;;;;;;6.80;6.10;;;;;;;35.14;49.87;100641.91;5056339;28;70562;-34
2021/05/07 08:04:49;;;;;;;7.07;5.93;;;;;;;35.14;50.00;100641.91;5053137;28;66110;-34
2021/05/07 08:07:20;;;;;;;7.13;6.53;;;;;;;35.18;49.81;100642.19;5054819;28;70604;-33
2021/05/07 08:09:51;;;;;;;;;;;;;;;35.05;49.80;100654.28;5047011;28;66132;-33
2021/05/07 08:12:22;;;;;;;7.25;6.35;;;;;;;35.18;49.68;100647.66;5050006;28;70888;-33
2021/05/07 08:14:52;;;;;;;6.53;6.13;;;;;;;35.18;50.04;100647.66;5040547;28;66683;-33
2021/05/07 08:17:23;;;;;;;11.55;6.22;;;;;;;35.18;49.79;100651.19;5049478;28;70085;-34
2021/05/07 08:19:59;;;;;;;6.00;5.47;;;;;;;35.21;50.00;100652.59;5043892;28;66137;-33
2021/05/07 08:22:30;;;;;;;7.68;6.05;;;;;;;35.21;49.96;100652.59;5052955;28;69957;-33
2021/05/07 08:25:01;;;;;;;6.70;5.73;;;;;;;35.22;50.02;100648.81;5044319;28;66494;-33
2021/05/07 08:27:31;;;;;;;6.60;6.10;;;;;;;35.26;49.70;100649.94;5041894;28;69258;-34
2021/05/07 08:30:01;;;;;;;6.55;6.05;;;;;;;35.22;49.44;100644.19;5042218;28;65641;-34
2021/05/07 08:32:32;;;;;;;6.63;6.03;;;;;;;35.29;50.17;100649.41;5043007;28;69912;-34
2021/05/07 08:35:04;;;;;;;11.45;6.13;;;;;;;35.32;49.73;100654.34;5046532;28;65467;-33
2021/05/07 08:37:43;;;;;;;11.60;6.50;;;;;;;35.32;49.94;100659.81;5050606;28;70215;-33
2021/05/07 08:40:17;;;;;;;11.18;6.97;;;;;;;35.29;49.83;100650.22;5047753;28;66061;-34
2021/05/07 08:42:47;;;;;;;13.00;6.90;;;;;;;35.38;49.34;100664.22;5062579;28;70602;-33
2021/05/07 08:45:19;;;;;;;11.27;8.02;;;;;;;35.40;49.51;100656.63;5038928;28;65952;-33
2021/05/07 08:48:12;;;;;;;12.68;7.45;;;;;;;35.34;49.41;100655.75;5048865;28;70381;-34
2021/05/07 08:50:51;;;;;;;8.75;7.80;;;;;;;35.41;49.31;100663.75;5054641;28;66777;-34
2021/05/07 08:53:22;;;;;;;10.07;7.65;;;;;;;35.41;49.52;100663.75;5047352;28;70844;-33
2021/05/07 08:55:53;;;;;;;13.80;8.03;;;;;;;35.39;49.33;100655.00;5059816;28;67400;-35
2021/05/07 08:58:23;;;;;;;8.97;8.07;;;;;;;35.38;49.90;100647.06;5055644;28;71164;-34
2021/05/07 09:00:53;;;;;;;9.13;8.23;;;;;;;35.45;49.31;100659.41;5047605;28;66794;-33
2021/05/07 09:03:24;;;;;;;9.63;8.85;;;;;;;35.43;49.37;100658.84;5045818;28;70062;-34
2021/05/07 09:05:54;;;;;;;9.32;8.40;;;;;;;35.42;49.27;100659.94;5048278;28;66316;-33
2021/05/07 09:08:31;;;;;;;9.88;8.85;;;;;;;35.35;49.26;100646.50;5059267;28;70668;-35
2021/05/07 09:11:01;;;;;;;13.68;8.88;;;;;;;35.43;49.19;100656.09;5076546;27;65384;-34
2021/05/07 09:13:32;;;;;;;10.65;9.80;;;;;;;35.44;49.41;100660.50;5071299;28;70594;-34
2021/05/07 09:16:06;;;;;;;12.02;8.82;;;;;;;35.35;49.28;100649.22;5058614;28;65995;-34
2021/05/07 09:18:51;;;;;;;10.48;8.82;;;;;;;35.34;49.57;100663.94;5055093;28;68808;-36
2021/05/07 09:21:21;;;;;;;10.65;9.20;;;;;;;35.43;49.75;100667.03;5051281;28;65394;-35
2021/05/07 09:23:52;;;;;;;9.75;8.80;;;;;;;35.43;49.20;100677.13;5057153;28;70357;-34
2021/05/07 09:26:22;;;;;;;12.38;9.65;;;;;;;35.42;49.59;100679.03;5059697;28;66190;-33
2021/05/07 09:29:03;;;;;;;14.02;9.85;;;;;;;35.45;49.25;100691.31;5059057;28;70160;-34
2021/05/07 09:31:45;;;;;;;13.43;10.10;;;;;;;35.31;49.72;100663.63;5054167;28;66111;-33
2021/05/07 09:34:16;;;;;;;14.70;10.52;;;;;;;35.47;49.47;100687.25;5050464;28;70591;-34
2021/05/07 09:36:47;;;;;;;15.20;9.83;;;;;;;35.42;49.51;100687.19;5068797;28;65770;-33
2021/05/07 09:39:22;;;;;;;11.32;10.02;;;;;;;35.37;49.74;100668.06;5046681;28;70201;-35
2021/05/07 09:41:54;;;;;;;15.02;10.27;;;;;;;35.46;50.04;100693.78;5087426;27;65312;-33
2021/05/07 09:44:26;;;;;;;13.02;10.02;;;;;;;35.42;49.39;100698.13;5058739;28;69734;-34
2021/05/07 09:46:56;;;;;;;13.30;10.35;;;;;;;35.41;49.78;100690.19;5059035;28;65940;-34
2021/05/07 09:49:32;;;;;;;13.98;10.57;;;;;;;35.43;49.74;100698.94;5070041;28;70004;-34
2021/05/07 09:52:02;;;;;;;11.82;10.60;;;;;;;35.44;49.90;100698.69;5045644;27;65828;-34
2021/05/07 09:54:32;;;;;;;14.57;11.25;;;;;;;35.44;49.64;100701.41;5069052;28;69389;-35
2021/05/07 09:57:05;;;;;;;22.00;10.90;;;;;;;35.40;49.89;100700.25;5074685;27;65293;-34
2021/05/07 09:59:37;;;;;;;19.60;10.85;;;;;;;35.40;49.64;100711.19;5062643;27;70088;-35
2021/05/07 10:02:10;;;;;;;13.82;10.77;;;;;;;35.38;50.15;100718.78;5051148;28;65855;-34
2021/05/07 10:04:40;;;;;;;14.90;10.88;;;;;;;35.40;49.85;100722.09;5057388;28;69238;-33
2021/05/07 10:07:10;;;;;;;14.52;11.15;;;;;;;35.40;50.00;100722.09;5054246;28;66782;-34
2021/05/07 10:09:40;;;;;;;33.65;13.27;;;;;;;35.42;50.63;100724.56;5064376;28;70146;-34
2021/05/07 10:12:14;;;;;;;51.95;14.65;;;;;;;35.34;50.44;100728.56;5048504;28;65512;-33
2021/05/07 10:14:47;;;;;;;67.00;16.73;;;;;;;35.26;50.38;100732.56;5060035;28;71026;-33
2021/05/07 10:17:19;;;;;;;61.90;15.98;;;;;;;35.12;51.01;100732.09;5043188;28;66526;-33
2021/05/07 10:19:51;;;;;;;46.77;15.33;;;;;;;35.06;51.20;100744.03;5038929;28;71198;-33
2021/05/07 10:22:45;;;;;;;39.63;15.20;;;;;;;34.97;52.01;100734.63;5083888;27;65356;-32
2021/05/07 10:25:20;;;;;;;37.88;14.73;;;;;;;34.91;51.70;100730.19;5044533;28;71041;-32
2021/05/07 10:27:55;;;;;;;41.15;14.45;;;;;;;34.84;51.41;100734.97;5055837;28;65372;-33
2021/05/07 10:30:31;;;;;;;46.58;14.45;;;;;;;34.61;51.86;100739.56;5049890;28;69634;-33
2021/05/07 10:33:14;;;;;;;28.33;12.85;;;;;;;34.55;51.96;100750.56;5059608;28;65979;-33
2021/05/07 10:35:57;;;;;;;35.55;12.63;;;;;;;34.45;52.42;100751.25;5067233;28;69033;-34
2021/05/07 10:38:27;;;;;;;28.73;12.07;;;;;;;34.36;52.02;100739.13;5063038;28;65471;-34
2021/05/07 10:41:08;;;;;;;26.15;11.93;;;;;;;34.19;52.56;100742.66;5046538;27;69370;-34
2021/05/07 10:43:43;;;;;;;34.13;12.85;;;;;;;34.16;52.54;100737.72;5053621;28;65382;-32
2021/05/07 10:46:21;;;;;;;32.53;13.43;;;;;;;34.19;52.63;100745.38;5056367;28;69898;-34
2021/05/07 10:48:56;;;;;;;45.08;14.32;;;;;;;34.25;52.37;100760.72;5056416;28;67076;-33
2021/05/07 10:51:27;;;;;;;26.67;13.23;;;;;;;34.32;52.01;100767.91;5055970;28;70289;-33
2021/05/07 10:54:13;;;;;;;49.35;13.30;;;;;;;34.29;52.49;100771.13;5051752;28;65918;-32
2021/05/07 10:56:44;;;;;;;29.15;11.88;;;;;;;34.33;52.26;100769.56;5053126;28;68410;-32
2021/05/07 10:59:16;;;;;;;;;;;;;;;34.27;52.69;100774.09;5055317;28;65666;-32
2021/05/07 11:02:00;;;;;;;23.65;10.93;;;;;;;34.29;52.30;100773.84;5058812;28;70341;-33
2021/05/07 11:04:48;;;;;;;41.72;11.57;;;;;;;34.26;52.48;100773.25;5058261;27;66810;-34
2021/05/07 11:07:34;;;;;;;29.75;9.90;;;;;;;34.13;52.50;100775.47;5053103;28;69993;-33
2021/05/07 11:10:09;;;;;;;28.52;9.95;;;;;;;34.09;52.61;100786.03;5055193;28;66230;-33
2021/05/07 11:12:44;;;;;;;16.50;9.25;;;;;;;33.96;52.71;100772.69;5043731;28;69573;-33
2021/05/07 11:15:16;;;;;;;27.10;9.32;;;;;;;34.02;53.06;100788.06;5061280;28;66731;-33
2021/05/07 11:18:01;;;;;;;30.90;9.13;;;;;;;33.99;53.21;100796.69;5054335;27;69632;-33
2021/05/07 11:20:43;;;;;;;32.55;8.93;;;;;;;33.98;53.41;100804.03;5041849;28;67091;-34
2021/05/07 11:23:13;;;;;;;38.30;8.33;;;;;;;33.97;53.62;100796.13;5051498;28;69658;-33
2021/05/07 11:25:44;;;;;;;35.67;8.57;;;;;;;33.88;54.37;100786.69;5051364;28;65616;-33
2021/05/07 11:28:17;;;;;;;22.98;9.00;;;;;;;33.86;54.32;100797.00;5054664;28;69357;-33
2021/05/07 11:30:59;;;;;;;27.58;9.18;;;;;;;33.68;54.56;100765.34;5055632;28;65951;-33
2021/05/07 11:33:29;;;;;;;26.25;8.65;;;;;;;33.86;54.22;100794.28;5045406;28;70182;-32
2021/05/07 11:36:06;;;;;;;39.88;9.20;;;;;;;33.81;55.00;100793.09;5054107;28;66734;-33
2021/05/07 11:38:43;;;;;;;37.03;9.00;;;;;;;33.74;54.68;100776.13;5059463;28;70839;-35
2021/05/07 11:41:16;;;;;;;42.45;10.05;;;;;;;33.74;55.15;100792.44;5061132;27;65105;-33
2021/05/07 11:43:48;;;;;;;33.78;9.60;;;;;;;33.76;55.20;100795.72;5061950;28;69847;-33